Time;durP1;ratioP1;P1;durP2;ratioP2;P2;SDS_P1;SDS_P2;PMS_P1;PMS_P2;Temp;Humidity;BMP_temperature;BMP_pressure;BME280_temperature;BME280_humidity;BME280_pressure;Samples;Min_cycle;Max_cycle;Signal;HPM_P1;HPM_P2
2022/01/04 00:02:16;;;;;;;15.73;9.15;;;;;;;9.08;67.57;99459.56;4475903;32;33909;-70
2022/01/04 00:04:44;;;;;;;16.77;9.85;;;;;;;9.08;66.73;99454.97;4475832;32;34740;-71
2022/01/04 00:07:11;;;;;;;19.35;10.90;;;;;;;9.13;67.21;99463.16;4476014;32;35104;-73
2022/01/04 00:09:43;;;;;;;16.45;10.23;;;;;;;8.44;69.78;99449.00;4476865;32;34455;-71
2022/01/04 00:14:57;;;;;;;17.80;10.82;;;;;;;8.58;69.23;99436.81;4451562;32;33131;-70
2022/01/04 00:17:25;;;;;;;16.58;10.98;;;;;;;8.68;69.01;99433.47;4476349;32;35307;-70
2022/01/04 00:19:52;;;;;;;16.40;10.27;;;;;;;8.71;68.60;99441.91;4476695;32;34566;-71
2022/01/04 00:22:20;;;;;;;17.33;11.05;;;;;;;8.40;69.99;99460.28;4475125;32;33300;-71
2022/01/04 00:24:47;;;;;;;18.80;10.57;;;;;;;8.40;69.69;99444.06;4454153;32;33275;-71
2022/01/04 00:27:15;;;;;;;16.23;9.57;;;;;;;8.92;67.65;99451.22;4468554;32;34167;-72
2022/01/04 00:29:42;;;;;;;16.60;10.48;;;;;;;8.95;67.64;99445.28;4461209;32;34397;-71
2022/01/04 00:32:10;;;;;;;17.87;10.65;;;;;;;8.95;67.92;99449.88;4475079;32;34131;-70
2022/01/04 00:34:37;;;;;;;19.83;10.70;;;;;;;9.11;67.16;99435.53;4476289;32;33704;-70
2022/01/04 00:37:05;;;;;;;16.15;10.00;;;;;;;8.97;67.66;99434.22;4476391;32;34025;-71
2022/01/04 00:39:32;;;;;;;14.80;8.55;;;;;;;8.97;67.92;99459.41;4476636;32;34562;-72
2022/01/04 00:42:01;;;;;;;17.62;9.63;;;;;;;8.89;68.58;99451.69;4462791;32;33776;-71
2022/01/04 00:44:28;;;;;;;15.25;9.70;;;;;;;9.39;66.70;99452.72;4457086;32;33749;-71
2022/01/04 00:46:58;;;;;;;16.52;8.73;;;;;;;8.69;69.32;99448.62;4454641;32;34196;-71
2022/01/04 00:49:26;;;;;;;13.02;8.50;;;;;;;8.80;68.74;99440.44;4469299;32;33756;-72
2022/01/04 00:51:53;;;;;;;14.20;9.02;;;;;;;9.38;66.61;99435.66;4469166;32;33462;-72
2022/01/04 00:54:21;;;;;;;14.95;8.48;;;;;;;9.02;67.69;99434.31;4455235;32;34462;-74
2022/01/04 00:56:49;;;;;;;12.77;8.23;;;;;;;8.72;69.23;99426.50;4455253;32;34956;-72
2022/01/04 00:59:17;;;;;;;18.08;9.77;;;;;;;9.01;68.20;99428.06;4455050;32;34628;-71
2022/01/04 01:01:45;;;;;;;15.48;9.85;;;;;;;8.58;69.42;99434.12;4469226;32;34207;-72
2022/01/04 01:04:13;;;;;;;14.52;8.45;;;;;;;9.04;68.14;99437.59;4455485;32;33594;-72
2022/01/04 01:06:41;;;;;;;15.40;8.75;;;;;;;8.91;68.47;99433.31;4467781;32;34017;-72
2022/01/04 01:09:08;;;;;;;14.82;9.00;;;;;;;8.90;68.72;99430.84;4454836;32;32393;-72
2022/01/04 01:11:36;;;;;;;16.60;9.82;;;;;;;9.07;68.17;99436.25;4470109;32;34362;-72
2022/01/04 01:14:04;;;;;;;14.25;9.25;;;;;;;8.74;69.51;99427.06;4443944;32;34009;-71
2022/01/04 01:16:32;;;;;;;13.45;8.65;;;;;;;9.22;67.72;99421.09;4470701;32;34995;-72
2022/01/04 01:19:00;;;;;;;14.98;9.23;;;;;;;9.34;66.59;99426.41;4457138;32;32986;-72
2022/01/04 01:21:27;;;;;;;14.15;9.13;;;;;;;9.24;66.80;99427.09;4457020;32;33385;-72
2022/01/04 01:23:55;;;;;;;14.45;8.77;;;;;;;9.10;67.72;99423.06;4471337;32;34071;-72
2022/01/04 01:26:22;;;;;;;13.82;8.85;;;;;;;8.94;68.53;99416.59;4471134;32;34174;-71
2022/01/04 01:28:49;;;;;;;15.48;9.85;;;;;;;9.14;68.36;99409.88;4470558;32;34511;-72
2022/01/04 01:31:17;;;;;;;15.88;9.68;;;;;;;8.58;70.17;99418.69;4471052;32;34125;-71
2022/01/04 01:33:44;;;;;;;17.65;10.60;;;;;;;8.93;68.47;99420.38;4470987;32;33837;-71
2022/01/04 01:36:12;;;;;;;17.27;10.00;;;;;;;8.45;70.32;99415.50;4470704;32;34264;-71
2022/01/04 01:38:39;;;;;;;15.95;10.30;;;;;;;8.91;68.84;99395.44;4470633;32;33781;-71
2022/01/04 01:41:07;;;;;;;15.93;10.50;;;;;;;8.79;69.09;99400.94;4470922;32;33386;-71
2022/01/04 01:43:34;;;;;;;19.65;10.93;;;;;;;9.09;67.82;99397.06;4470857;32;34025;-72
2022/01/04 01:46:02;;;;;;;18.70;11.23;;;;;;;8.91;68.42;99395.44;4470793;32;34246;-73
2022/01/04 01:48:30;;;;;;;19.55;11.75;;;;;;;8.60;69.53;99400.34;4456880;32;33981;-71
2022/01/04 01:50:57;;;;;;;16.55;10.93;;;;;;;7.83;72.98;99378.34;4470973;32;33362;-72
2022/01/04 01:53:25;;;;;;;20.08;11.55;;;;;;;8.59;70.54;99381.66;4470997;32;34105;-71
2022/01/04 01:55:52;;;;;;;17.70;11.60;;;;;;;8.67;70.31;99373.16;4456837;32;34289;-71
2022/01/04 01:58:20;;;;;;;21.80;12.30;;;;;;;8.67;70.57;99361.53;4456528;32;33836;-71
2022/01/04 02:00:47;;;;;;;19.17;11.52;;;;;;;8.66;70.96;99371.53;4470711;32;33352;-71
2022/01/04 02:03:15;;;;;;;18.87;11.07;;;;;;;8.37;71.57;99346.37;4456568;32;33118;-70
2022/01/04 02:05:43;;;;;;;19.62;11.48;;;;;;;7.91;73.44;99326.66;4470623;32;34288;-72
2022/01/04 02:08:11;;;;;;;20.02;12.00;;;;;;;7.36;75.80;99299.16;4470569;32;33569;-71
2022/01/04 02:10:39;;;;;;;18.90;12.40;;;;;;;7.70;75.02;99287.63;4456549;32;34403;-71
2022/01/04 02:13:07;;;;;;;20.30;12.05;;;;;;;7.44;75.53;99280.94;4456485;32;33949;-71
2022/01/04 02:15:35;;;;;;;21.45;12.55;;;;;;;7.60;74.77;99293.66;4470507;32;34152;-70
2022/01/04 02:18:03;;;;;;;19.75;13.18;;;;;;;6.97;76.94;99279.16;4456548;32;33566;-71
2022/01/04 02:20:30;;;;;;;23.05;14.23;;;;;;;6.98;77.46;99275.41;4456506;32;33882;-71
2022/01/04 02:22:58;;;;;;;22.75;13.62;;;;;;;6.80;78.53;99276.34;4469892;32;34720;-72
2022/01/04 02:25:25;;;;;;;20.17;12.75;;;;;;;7.21;76.62;99263.72;4470590;32;34784;-71
2022/01/04 02:27:53;;;;;;;20.75;13.25;;;;;;;6.73;78.86;99259.47;4470561;32;33681;-73
2022/01/04 02:30:21;;;;;;;20.45;12.93;;;;;;;6.79;79.46;99261.25;4456482;32;33291;-71
2022/01/04 02:32:48;;;;;;;22.05;13.50;;;;;;;6.96;78.57;99261.34;4470551;32;33889;-71
2022/01/04 02:35:20;;;;;;;22.58;12.77;;;;;;;6.71;80.18;99265.09;4456300;32;34982;-71
2022/01/04 02:37:48;;;;;;;20.27;12.80;;;;;;;7.09;78.27;99271.06;4470141;32;33883;-72
2022/01/04 02:40:15;;;;;;;21.15;12.73;;;;;;;7.39;76.99;99270.84;4456292;32;33776;-73
2022/01/04 02:42:43;;;;;;;20.85;13.15;;;;;;;7.11;77.71;99283.25;4470365;32;33953;-73
2022/01/04 02:45:11;;;;;;;20.77;11.77;;;;;;;7.17;77.82;99289.53;4470412;32;34935;-72
2022/01/04 02:47:39;;;;;;;22.25;12.65;;;;;;;7.33;77.36;99288.00;4470451;32;33879;-71
2022/01/04 02:50:08;;;;;;;21.95;13.73;;;;;;;7.11;78.38;99282.44;4456476;32;33645;-72
2022/01/04 02:52:36;;;;;;;20.25;12.02;;;;;;;7.09;78.56;99277.25;4456507;32;33862;-71
2022/01/04 02:55:12;;;;;;;19.70;12.80;;;;;;;7.55;76.17;99280.88;4456052;32;34943;-72
2022/01/04 02:57:41;;;;;;;19.73;12.60;;;;;;;7.71;75.70;99282.00;4443435;32;34030;-71
2022/01/04 03:00:29;;;;;;;23.27;12.55;;;;;;;7.93;74.92;99281.31;4470470;32;33619;-71
2022/01/04 03:02:57;;;;;;;22.23;12.63;;;;;;;8.20;73.71;99281.50;4470256;32;33629;-72
2022/01/04 03:05:25;;;;;;;19.17;12.43;;;;;;;8.27;73.06;99287.59;4470241;32;35037;-72
2022/01/04 03:07:52;;;;;;;21.60;12.23;;;;;;;8.29;73.21;99281.91;4455897;32;34011;-73
2022/01/04 03:10:20;;;;;;;17.50;11.23;;;;;;;8.34;72.72;99268.50;4469937;32;34273;-72
2022/01/04 03:12:47;;;;;;;18.37;11.80;;;;;;;8.53;71.94;99272.62;4470322;32;33692;-72
2022/01/04 03:15:15;;;;;;;17.37;10.95;;;;;;;8.49;71.88;99260.66;4469962;32;34248;-72
2022/01/04 03:17:42;;;;;;;17.27;10.80;;;;;;;8.45;72.14;99256.00;4470134;32;33884;-72
2022/01/04 03:20:10;;;;;;;18.12;10.85;;;;;;;8.73;70.98;99252.34;4470264;32;33646;-73
2022/01/04 03:22:38;;;;;;;15.88;10.27;;;;;;;8.73;70.71;99258.56;4470247;32;33752;-71
2022/01/04 03:25:06;;;;;;;18.27;10.90;;;;;;;8.43;71.45;99258.12;4456121;32;35153;-73
2022/01/04 03:27:33;;;;;;;18.58;11.57;;;;;;;8.36;71.56;99242.84;4470013;32;34943;-71
2022/01/04 03:30:01;;;;;;;19.10;11.88;;;;;;;8.34;71.82;99249.59;4455888;32;33424;-72
2022/01/04 03:32:29;;;;;;;19.70;10.80;;;;;;;8.34;71.52;99238.75;4456209;32;34714;-72
2022/01/04 03:34:56;;;;;;;18.58;10.98;;;;;;;8.33;71.20;99237.13;4470022;32;34218;-72
2022/01/04 03:37:23;;;;;;;19.10;10.40;;;;;;;8.47;70.66;99229.53;4469813;32;34359;-72
2022/01/04 03:39:51;;;;;;;16.08;10.20;;;;;;;8.42;70.55;99224.84;4469755;32;34313;-71
2022/01/04 03:42:18;;;;;;;18.55;10.90;;;;;;;8.13;72.34;99224.09;4455684;32;33371;-72
2022/01/04 03:44:46;;;;;;;17.12;10.15;;;;;;;7.78;73.93;99212.47;4469977;32;34029;-72
2022/01/04 03:47:13;;;;;;;17.37;10.27;;;;;;;8.04;72.36;99218.28;4470000;32;34063;-72
2022/01/04 03:49:41;;;;;;;18.98;10.85;;;;;;;8.76;69.88;99230.19;4470014;32;33545;-72
2022/01/04 03:52:08;;;;;;;16.45;10.82;;;;;;;8.16;72.08;99220.91;4469868;32;33525;-71
2022/01/04 03:54:36;;;;;;;17.60;10.05;;;;;;;7.94;72.93;99221.63;4456058;32;34299;-73
2022/01/04 03:57:03;;;;;;;18.25;11.40;;;;;;;8.16;71.82;99212.78;4469845;32;33865;-78
2022/01/04 03:59:31;;;;;;;17.02;10.93;;;;;;;7.81;72.88;99214.66;4455771;32;33974;-71
2022/01/04 04:01:59;;;;;;;15.85;10.50;;;;;;;7.66;73.69;99205.47;4469863;32;33839;-73
2022/01/04 04:04:27;;;;;;;18.10;11.10;;;;;;;7.75;73.30;99195.91;4469927;32;33959;-75
2022/01/04 04:06:54;;;;;;;16.37;11.00;;;;;;;7.71;73.72;99194.75;4469766;32;33971;-71
2022/01/04 04:09:22;;;;;;;17.02;10.80;;;;;;;7.24;75.44;99190.41;4470130;32;32765;-71
2022/01/04 04:11:49;;;;;;;17.75;11.73;;;;;;;7.83;73.07;99181.19;4455645;32;34669;-75
2022/01/04 04:14:17;;;;;;;18.02;11.18;;;;;;;7.21;75.23;99193.59;4469760;32;33973;-73
2022/01/04 04:17:05;;;;;;;17.23;11.27;;;;;;;7.57;74.42;99189.66;4469535;32;34046;-72
2022/01/04 04:19:32;;;;;;;19.30;10.45;;;;;;;7.21;75.33;99193.59;4455854;32;34504;-72
2022/01/04 04:22:00;;;;;;;17.77;10.90;;;;;;;7.44;74.79;99191.88;4455917;32;33791;-72
2022/01/04 04:24:28;;;;;;;18.23;11.23;;;;;;;7.69;73.67;99183.38;4469512;32;33834;-72
2022/01/04 04:26:55;;;;;;;18.15;11.70;;;;;;;7.28;75.18;99186.19;4469635;32;34469;-72
2022/01/04 04:29:22;;;;;;;17.35;10.63;;;;;;;6.95;76.69;99181.47;4469672;32;34446;-72
2022/01/04 04:31:50;;;;;;;18.85;11.18;;;;;;;7.44;74.95;99175.66;4469607;32;34756;-73
2022/01/04 04:34:18;;;;;;;19.23;11.88;;;;;;;7.29;75.70;99176.19;4469544;32;35076;-72
2022/01/04 04:36:45;;;;;;;17.05;10.68;;;;;;;7.24;75.84;99171.53;4469367;32;33805;-73
2022/01/04 04:39:17;;;;;;;16.10;10.35;;;;;;;7.44;74.96;99176.47;4469256;32;34318;-73
2022/01/04 04:41:45;;;;;;;18.40;10.88;;;;;;;7.85;73.13;99176.38;4469446;32;33881;-72
2022/01/04 04:44:12;;;;;;;18.48;10.77;;;;;;;7.54;74.26;99168.56;4469531;32;34906;-72
2022/01/04 04:46:40;;;;;;;15.63;9.95;;;;;;;6.96;76.24;99165.06;4468539;32;33711;-70
2022/01/04 04:49:07;;;;;;;17.42;10.23;;;;;;;7.50;74.05;99166.59;4469644;32;33487;-71
2022/01/04 04:51:35;;;;;;;18.00;11.23;;;;;;;7.39;74.40;99168.31;4469892;32;33894;-70
2022/01/04 04:54:03;;;;;;;17.75;10.23;;;;;;;7.34;74.82;99170.87;4469198;32;34355;-71
2022/01/04 04:56:31;;;;;;;16.90;9.80;;;;;;;7.53;73.67;99158.00;4455148;32;34133;-70
2022/01/04 04:58:58;;;;;;;14.57;9.75;;;;;;;7.52;73.41;99149.09;4469320;32;34254;-70
2022/01/04 05:01:26;;;;;;;16.55;10.27;;;;;;;7.60;72.77;99153.25;4468975;32;34265;-71
2022/01/04 05:03:53;;;;;;;16.17;9.68;;;;;;;7.55;72.96;99145.91;4469480;32;35164;-71
2022/01/04 05:06:21;;;;;;;16.33;9.35;;;;;;;7.67;72.02;99158.53;4468129;32;35063;-70
2022/01/04 05:08:48;;;;;;;16.10;9.20;;;;;;;7.68;71.69;99147.47;4484634;32;33827;-70
2022/01/04 05:11:16;;;;;;;15.07;9.77;;;;;;;7.83;70.91;99149.59;4483149;32;34590;-72
2022/01/04 05:13:43;;;;;;;14.85;9.45;;;;;;;7.80;70.84;99147.41;4484629;32;33868;-70
2022/01/04 05:16:11;;;;;;;14.50;9.48;;;;;;;7.62;71.22;99150.31;4482952;32;33841;-69
2022/01/04 05:18:39;;;;;;;15.15;9.15;;;;;;;7.62;70.70;99153.84;4481799;32;34178;-72
2022/01/04 05:21:06;;;;;;;17.08;9.55;;;;;;;7.39;71.31;99161.03;4454646;32;33857;-70
2022/01/04 05:23:34;;;;;;;14.70;9.48;;;;;;;7.67;69.82;99151.25;4468733;32;34882;-71
2022/01/04 05:26:02;;;;;;;14.38;9.15;;;;;;;7.49;70.20;99154.97;4468807;32;33933;-69
2022/01/04 05:28:29;;;;;;;15.15;8.73;;;;;;;7.29;70.77;99151.91;4468591;32;33461;-69
2022/01/04 05:30:57;;;;;;;15.20;9.70;;;;;;;7.40;69.70;99145.63;4468360;32;34575;-70
2022/01/04 05:33:25;;;;;;;15.77;9.88;;;;;;;7.39;69.30;99133.22;4468646;32;34906;-70
2022/01/04 05:35:53;;;;;;;16.27;9.43;;;;;;;7.35;69.32;99126.66;4468306;32;34769;-69
2022/01/04 05:38:21;;;;;;;16.58;9.55;;;;;;;7.53;68.73;99131.81;4467983;32;33524;-70
2022/01/04 05:40:48;;;;;;;17.35;10.50;;;;;;;6.84;70.38;99121.12;4468582;32;34023;-69
2022/01/04 05:43:16;;;;;;;17.48;10.27;;;;;;;6.32;72.01;99121.94;4468340;32;34068;-69
2022/01/04 05:45:43;;;;;;;16.30;9.75;;;;;;;6.65;71.07;99112.41;4468208;32;34135;-71
2022/01/04 05:48:20;;;;;;;15.80;9.60;;;;;;;6.70;70.85;99103.59;4468476;32;34226;-71
2022/01/04 05:50:48;;;;;;;14.40;9.77;;;;;;;6.80;70.46;99093.00;4452802;32;33878;-70
2022/01/04 05:53:16;;;;;;;17.77;10.07;;;;;;;6.44;71.84;99095.00;4468294;32;34898;-69
2022/01/04 05:55:43;;;;;;;17.27;10.38;;;;;;;6.57;71.45;99089.34;4467595;32;34125;-69
2022/01/04 05:58:11;;;;;;;17.83;10.15;;;;;;;5.98;76.03;99091.28;4468769;32;33731;-71
2022/01/04 06:00:38;;;;;;;17.83;10.25;;;;;;;6.26;74.75;99089.75;4470447;32;33878;-70
2022/01/04 06:03:06;;;;;;;16.33;9.73;;;;;;;6.95;72.77;99089.78;4470618;32;34135;-70
2022/01/04 06:05:34;;;;;;;19.12;10.80;;;;;;;6.69;73.39;99089.28;4469958;32;34543;-72
2022/01/04 06:08:01;;;;;;;16.70;10.27;;;;;;;6.56;74.92;99094.97;4472242;32;33616;-71
2022/01/04 06:10:36;;;;;;;17.37;10.90;;;;;;;5.97;77.50;99089.66;4486186;32;33789;-71
2022/01/04 06:15:32;;;;;;;22.15;11.43;;;;;;;5.99;79.86;99084.06;4485724;32;33914;-70
2022/01/04 06:17:59;;;;;;;18.05;10.90;;;;;;;5.82;80.79;99070.44;4485804;32;34035;-69
2022/01/04 06:20:27;;;;;;;17.90;10.50;;;;;;;5.59;82.58;99074.75;4485423;32;33792;-70
2022/01/04 06:22:55;;;;;;;16.42;9.80;;;;;;;6.25;80.38;99075.47;4485870;32;34034;-69
2022/01/04 06:25:23;;;;;;;15.85;10.60;;;;;;;5.76;82.93;99073.00;4485983;32;33953;-71
2022/01/04 06:27:54;;;;;;;16.20;9.68;;;;;;;5.80;82.82;99070.69;4486104;32;33105;-70
2022/01/04 06:30:22;;;;;;;15.27;9.40;;;;;;;6.08;81.75;99077.25;4469204;32;33972;-76
2022/01/04 06:32:51;;;;;;;17.75;9.70;;;;;;;6.20;80.76;99074.53;4470315;32;35031;-72
2022/01/04 06:35:18;;;;;;;19.15;9.93;;;;;;;6.31;79.62;99063.75;4469827;32;34651;-73
2022/01/04 06:37:46;;;;;;;14.93;8.98;;;;;;;6.56;78.35;99062.63;4455766;32;33495;-72
2022/01/04 06:40:14;;;;;;;13.98;8.48;;;;;;;6.89;76.87;99056.53;4470457;32;33577;-72
2022/01/04 06:42:42;;;;;;;14.13;8.50;;;;;;;6.73;76.62;99054.59;4470137;32;35171;-69
2022/01/04 06:45:11;;;;;;;14.07;8.43;;;;;;;6.84;75.94;99058.28;4470233;32;34715;-73
2022/01/04 06:47:39;;;;;;;14.07;8.40;;;;;;;6.77;76.31;99061.13;4469985;32;33550;-71
2022/01/04 06:50:07;;;;;;;15.32;8.85;;;;;;;6.72;76.54;99044.88;4469943;32;33762;-71
2022/01/04 06:52:34;;;;;;;12.20;7.97;;;;;;;7.09;75.15;99047.97;4470325;32;34248;-70
2022/01/04 06:55:02;;;;;;;14.63;8.35;;;;;;;6.82;75.76;99044.22;4470455;32;33994;-70
2022/01/04 06:57:30;;;;;;;18.48;11.45;;;;;;;6.85;75.65;99041.06;4470027;32;33034;-74
2022/01/04 06:59:57;;;;;;;20.20;10.50;;;;;;;6.54;77.29;99048.56;4470099;32;34330;-70
2022/01/04 07:02:25;;;;;;;22.98;11.88;;;;;;;7.07;74.48;99039.31;4470075;32;33961;-70
2022/01/04 07:04:52;;;;;;;20.90;12.27;;;;;;;7.21;73.53;99039.78;4469896;32;33826;-71
2022/01/04 07:07:20;;;;;;;26.25;13.98;;;;;;;7.30;73.20;99038.34;4468518;32;33524;-68
2022/01/04 07:09:47;;;;;;;20.17;12.10;;;;;;;7.23;73.58;99039.56;4469167;32;34615;-67
2022/01/04 07:12:14;;;;;;;22.27;12.25;;;;;;;6.81;74.98;99039.91;4470209;32;34071;-68
2022/01/04 07:14:42;;;;;;;21.73;12.55;;;;;;;6.53;76.07;99046.94;4469775;32;34708;-70
2022/01/04 07:17:09;;;;;;;17.60;10.18;;;;;;;6.94;75.18;99055.78;4468818;32;34310;-68
2022/01/04 07:19:39;;;;;;;14.40;8.90;;;;;;;7.26;74.13;99063.37;4470333;32;33857;-70
2022/01/04 07:22:06;;;;;;;14.95;9.05;;;;;;;7.17;74.77;99068.31;4469460;32;34682;-70
2022/01/04 07:24:34;;;;;;;13.48;8.80;;;;;;;7.46;74.08;99068.28;4469595;32;33717;-71
2022/01/04 07:27:01;;;;;;;13.70;9.25;;;;;;;7.68;73.22;99069.16;4455919;32;34296;-70
2022/01/04 07:29:29;;;;;;;15.07;8.85;;;;;;;7.96;72.24;99070.13;4455529;32;34602;-70
2022/01/04 07:31:57;;;;;;;15.38;9.27;;;;;;;7.78;72.48;99065.81;4468856;32;35072;-71
2022/01/04 07:34:24;;;;;;;32.40;15.82;;;;;;;8.28;70.92;99073.00;4468167;32;34756;-69
2022/01/04 07:36:52;;;;;;;30.77;13.90;;;;;;;8.17;71.03;99071.22;4469783;32;33689;-69
2022/01/04 07:39:20;;;;;;;23.17;12.02;;;;;;;8.08;71.15;99068.16;4469790;32;33930;-71
2022/01/04 07:41:48;;;;;;;20.40;10.98;;;;;;;8.46;69.73;99057.56;4469675;32;34192;-69
2022/01/04 07:44:15;;;;;;;15.60;9.85;;;;;;;8.43;69.50;99049.97;4469822;32;34742;-71
2022/01/04 07:46:43;;;;;;;13.65;8.50;;;;;;;7.97;70.49;99040.16;4469332;32;33445;-71
2022/01/04 07:49:10;;;;;;;15.50;9.40;;;;;;;8.08;70.56;99048.37;4469865;32;34642;-70
2022/01/04 07:51:38;;;;;;;16.90;10.75;;;;;;;7.71;72.01;99047.09;4468225;32;34975;-70
2022/01/04 07:54:05;;;;;;;17.40;11.10;;;;;;;7.97;71.76;99050.97;4468746;32;33448;-71
2022/01/04 07:56:32;;;;;;;19.05;12.75;;;;;;;8.21;70.73;99040.75;4469641;32;34326;-71
2022/01/04 07:59:01;;;;;;;18.77;10.25;;;;;;;8.22;70.58;99034.28;4468921;32;34614;-71
2022/01/04 08:01:28;;;;;;;16.00;9.82;;;;;;;8.75;68.56;99014.91;4469439;32;34977;-70
2022/01/04 08:03:57;;;;;;;14.00;9.07;;;;;;;9.18;67.52;99015.88;4469855;32;34715;-69
2022/01/04 08:06:24;;;;;;;15.48;9.55;;;;;;;9.40;67.04;99011.16;4469017;32;34067;-74
2022/01/04 08:08:52;;;;;;;14.15;8.55;;;;;;;9.01;67.87;99018.69;4469230;32;34678;-71
2022/01/04 08:11:20;;;;;;;10.80;7.30;;;;;;;7.95;72.35;99017.19;4469711;32;34129;-71
2022/01/04 08:13:48;;;;;;;11.80;7.03;;;;;;;9.10;68.58;99022.56;4469857;32;33966;-74
2022/01/04 08:16:15;;;;;;;10.98;6.70;;;;;;;8.97;68.90;99004.03;4469107;32;33451;-69
2022/01/04 08:18:43;;;;;;;11.98;7.45;;;;;;;9.20;67.97;98997.44;4469573;32;33938;-76
2022/01/04 08:21:31;;;;;;;12.57;6.95;;;;;;;9.89;65.92;98996.56;4468306;32;34740;-71
2022/01/04 08:23:58;;;;;;;12.77;8.65;;;;;;;10.06;66.25;98989.09;4469508;32;34054;-73
2022/01/04 08:26:28;;;;;;;8.65;5.87;;;;;;;10.35;64.63;98982.47;4469487;32;33136;-73
2022/01/04 08:28:56;;;;;;;9.05;6.07;;;;;;;10.37;64.39;98981.09;4469293;32;34456;-72
2022/01/04 08:31:24;;;;;;;9.23;5.65;;;;;;;10.90;62.53;98974.69;4468267;32;35270;-69
2022/01/04 08:33:53;;;;;;;9.00;5.70;;;;;;;10.41;62.99;98970.53;4469697;32;33787;-70
2022/01/04 08:36:22;;;;;;;8.60;5.97;;;;;;;10.72;62.65;98960.56;4469401;32;33396;-69
2022/01/04 08:38:49;;;;;;;8.75;5.55;;;;;;;11.27;61.11;98977.16;4452396;32;84409;-69
2022/01/04 08:41:17;;;;;;;7.82;4.97;;;;;;;11.32;59.70;98969.03;4469422;32;34177;-69
2022/01/04 08:43:44;;;;;;;8.98;5.85;;;;;;;11.23;60.93;98979.63;4469397;32;34589;-69
2022/01/04 08:46:12;;;;;;;9.05;5.70;;;;;;;11.36;59.98;98985.56;4468815;32;33235;-70
2022/01/04 08:48:39;;;;;;;8.95;5.30;;;;;;;10.70;61.48;98979.00;4468935;32;33875;-68
2022/01/04 08:51:07;;;;;;;8.82;5.20;;;;;;;10.73;62.00;98969.53;4455371;32;34128;-70
2022/01/04 08:53:34;;;;;;;8.13;5.45;;;;;;;10.84;61.34;98968.44;4468129;32;33778;-71
2022/01/04 08:56:04;;;;;;;8.10;5.40;;;;;;;11.06;61.12;98968.22;4469381;32;33423;-70
2022/01/04 08:58:31;;;;;;;9.23;6.05;;;;;;;10.64;62.21;98971.94;4469028;32;33989;-70
2022/01/04 09:01:02;;;;;;;8.73;6.22;;;;;;;11.17;60.60;98967.13;4468734;32;34037;-68
2022/01/04 09:03:30;;;;;;;10.05;6.07;;;;;;;10.35;62.10;98950.72;4468965;32;34055;-70
2022/01/04 09:05:58;;;;;;;9.05;5.32;;;;;;;9.67;64.62;98942.53;4469155;32;32914;-68
2022/01/04 09:08:25;;;;;;;9.40;5.90;;;;;;;9.34;66.64;98932.88;4469038;32;34154;-69
2022/01/04 09:10:54;;;;;;;10.05;6.43;;;;;;;9.65;66.14;98947.41;4468494;32;34172;-69
2022/01/04 09:13:24;;;;;;;8.57;5.57;;;;;;;10.13;64.15;98952.78;4468816;32;34784;-69
2022/01/04 09:18:46;;;;;;;8.98;6.20;;;;;;;9.49;66.42;98937.56;4469040;32;34940;-70
2022/01/04 09:21:26;;;;;;;10.52;5.53;;;;;;;9.13;67.54;98932.72;4466036;32;34222;-69
2022/01/04 09:23:55;;;;;;;11.40;5.65;;;;;;;9.57;66.43;98920.84;4468688;32;33898;-70
2022/01/04 09:26:24;;;;;;;8.73;5.30;;;;;;;9.23;67.89;98918.47;4468786;32;34883;-67
2022/01/04 09:28:51;;;;;;;9.02;5.93;;;;;;;8.97;68.92;98917.47;4468683;32;33779;-69
2022/01/04 09:31:24;;;;;;;9.13;5.55;;;;;;;8.92;69.26;98920.94;4454893;32;34207;-69
2022/01/04 09:33:52;;;;;;;8.60;5.45;;;;;;;9.61;67.15;98903.81;4470659;32;33874;-69
2022/01/04 09:36:32;;;;;;;9.75;5.45;;;;;;;9.79;66.08;98909.84;4470604;32;33385;-69
2022/01/04 09:39:00;;;;;;;8.32;5.62;;;;;;;9.76;66.22;98886.81;4470434;32;33931;-71
2022/01/04 09:41:28;;;;;;;10.00;6.03;;;;;;;9.14;68.03;98885.66;4456570;32;34302;-71
2022/01/04 09:43:55;;;;;;;8.43;5.53;;;;;;;9.27;68.27;98884.38;4456707;32;33144;-68
2022/01/04 09:46:23;;;;;;;8.35;5.12;;;;;;;9.55;66.74;98883.19;4470576;32;33451;-69
2022/01/04 09:48:51;;;;;;;8.35;5.43;;;;;;;9.09;69.14;98882.09;4470517;32;33818;-70
2022/01/04 09:51:18;;;;;;;7.97;4.85;;;;;;;9.03;69.14;98876.66;4456470;32;34180;-70
2022/01/04 09:53:46;;;;;;;8.65;5.25;;;;;;;9.33;69.28;98858.13;4470633;32;34464;-71
2022/01/04 09:56:14;;;;;;;10.27;5.97;;;;;;;9.53;68.54;98855.56;4470571;32;33535;-72
2022/01/04 09:58:42;;;;;;;10.80;5.68;;;;;;;9.99;66.80;98839.44;4469444;32;33979;-71
2022/01/04 10:01:20;;;;;;;9.10;5.37;;;;;;;10.22;66.54;98838.16;4470456;32;34173;-68
2022/01/04 10:04:08;;;;;;;9.00;5.22;;;;;;;10.62;65.83;98830.34;4470619;32;33928;-68
2022/01/04 10:06:37;;;;;;;10.30;5.53;;;;;;;10.78;64.61;98831.97;4456409;32;33811;-68
2022/01/04 10:09:08;;;;;;;8.70;5.25;;;;;;;11.03;63.63;98819.44;4456665;32;34893;-68
2022/01/04 10:11:44;;;;;;;8.38;5.35;;;;;;;11.08;63.97;98820.25;4470621;32;34217;-68
2022/01/04 10:14:26;;;;;;;7.10;4.65;;;;;;;11.41;63.25;98820.69;4470453;32;33705;-71
2022/01/04 10:16:59;;;;;;;6.82;4.75;;;;;;;11.24;63.06;98818.31;4455987;32;34296;-67
2022/01/04 10:19:40;;;;;;;8.27;5.37;;;;;;;11.09;63.85;98807.50;4470200;32;34912;-68
2022/01/04 10:22:15;;;;;;;8.90;5.05;;;;;;;11.41;64.66;98792.75;4469963;32;35006;-69
2022/01/04 10:24:47;;;;;;;7.47;4.78;;;;;;;11.16;64.89;98802.56;4470286;32;33891;-68
2022/01/04 10:27:26;;;;;;;8.10;4.75;;;;;;;11.15;64.75;98794.72;4470514;32;34246;-68
2022/01/04 10:30:12;;;;;;;7.37;4.95;;;;;;;11.31;64.71;98796.28;4470471;32;33987;-68
2022/01/04 10:32:58;;;;;;;8.32;4.32;;;;;;;11.20;65.55;98790.09;4470809;32;34274;-70
2022/01/04 10:35:42;;;;;;;6.18;4.05;;;;;;;11.36;65.14;98790.03;4470217;32;34639;-68
2022/01/04 10:38:20;;;;;;;6.55;4.55;;;;;;;11.77;64.11;98787.97;4469948;32;33515;-69
2022/01/04 10:41:04;;;;;;;5.95;3.65;;;;;;;11.82;63.09;98778.97;4470219;32;34613;-68
2022/01/04 10:43:44;;;;;;;6.50;4.20;;;;;;;11.95;62.66;98777.56;4469540;32;34553;-68
2022/01/04 10:46:14;;;;;;;6.68;3.85;;;;;;;11.61;64.40;98783.69;4470334;32;34080;-68
2022/01/04 10:48:44;;;;;;;6.47;4.05;;;;;;;11.28;64.56;98780.56;4470082;32;33505;-68
2022/01/04 10:51:17;;;;;;;8.20;4.28;;;;;;;11.17;65.88;98778.97;4470290;32;33892;-68
2022/01/04 10:53:49;;;;;;;8.02;4.97;;;;;;;10.83;66.96;98783.13;4470199;32;34418;-68
2022/01/04 10:56:24;;;;;;;7.43;4.30;;;;;;;11.37;65.14;98780.81;4470128;32;33948;-67
2022/01/04 10:58:53;;;;;;;9.57;6.00;;;;;;;11.23;65.92;98780.56;4470093;32;34256;-69
2022/01/04 11:01:22;;;;;;;8.02;4.93;;;;;;;11.02;66.98;98760.84;4469078;32;33891;-71
2022/01/04 11:03:53;;;;;;;7.53;4.70;;;;;;;11.32;66.58;98761.78;4484202;32;34156;-68
2022/01/04 11:06:29;;;;;;;7.20;4.35;;;;;;;11.44;65.96;98749.53;4458358;32;33402;-67
2022/01/04 11:08:57;;;;;;;6.03;3.90;;;;;;;11.41;65.79;98735.72;4485817;32;34527;-76
2022/01/04 11:11:26;;;;;;;6.68;4.65;;;;;;;11.75;64.64;98740.38;4485788;32;33757;-82
2022/01/04 11:13:54;;;;;;;7.65;4.45;;;;;;;11.70;65.37;98746.66;4485502;32;34780;-82
2022/01/04 11:16:23;;;;;;;6.95;4.40;;;;;;;11.75;65.44;98729.53;4485548;32;34454;-71
2022/01/04 11:18:54;;;;;;;6.12;3.97;;;;;;;11.60;66.33;98725.03;4485526;32;33352;-70
2022/01/04 11:21:32;;;;;;;7.65;3.90;;;;;;;11.49;65.49;98727.78;4485151;32;33682;-79
2022/01/04 11:24:03;;;;;;;6.45;4.03;;;;;;;10.96;67.19;98707.66;4471691;32;34182;-69
2022/01/04 11:26:31;;;;;;;6.28;3.87;;;;;;;11.24;66.47;98706.97;4485720;32;33865;-76
2022/01/04 11:28:59;;;;;;;6.87;4.40;;;;;;;11.23;66.36;98701.81;4485429;32;33527;-73
2022/01/04 11:31:55;;;;;;;7.35;4.18;;;;;;;11.20;66.67;98702.41;4471449;32;33959;-69
2022/01/04 11:34:46;;;;;;;5.95;3.95;;;;;;;11.69;65.11;98715.97;4465819;32;34229;-68
2022/01/04 11:37:18;;;;;;;7.55;4.45;;;;;;;11.19;67.17;98712.44;4469438;32;33916;-69
2022/01/04 11:39:45;;;;;;;6.90;4.22;;;;;;;11.23;66.98;98715.41;4455757;32;34230;-70
2022/01/04 11:42:31;;;;;;;6.60;4.25;;;;;;;10.66;68.96;98695.78;4469983;32;34492;-69
2022/01/04 11:45:00;;;;;;;7.53;4.12;;;;;;;10.75;68.51;98668.91;4470068;32;34460;-74
2022/01/04 11:47:31;;;;;;;7.85;5.15;;;;;;;10.53;69.30;98670.06;4455805;32;34168;-70